createdAt,value
2023-06-10T00:00:55.121Z,10.76
2023-06-10T00:01:55.150Z,10.69
2023-06-10T00:02:55.232Z,10.90
2023-06-10T00:03:55.345Z,10.78
2023-06-10T00:04:55.325Z,10.86
2023-06-10T00:05:55.272Z,10.63
2023-06-10T00:06:55.279Z,10.56
2023-06-10T00:07:55.299Z,10.57
2023-06-10T00:08:55.300Z,10.58
2023-06-10T00:09:55.312Z,10.65
2023-06-10T00:10:55.318Z,10.58
2023-06-10T00:11:55.333Z,10.65
2023-06-10T00:12:55.332Z,10.71
2023-06-10T00:13:55.338Z,10.90
2023-06-10T00:14:55.334Z,10.93
2023-06-10T00:15:55.390Z,10.79
2023-06-10T00:16:55.334Z,10.70
2023-06-10T00:17:55.383Z,10.76
2023-06-10T00:18:55.347Z,10.60
2023-06-10T00:19:55.342Z,10.49
2023-06-10T00:20:55.365Z,10.45
2023-06-10T00:21:55.356Z,10.73
2023-06-10T00:22:55.360Z,10.37
2023-06-10T00:23:55.414Z,10.45
2023-06-10T00:24:55.403Z,10.68
2023-06-10T00:25:55.412Z,10.38
2023-06-10T00:26:55.402Z,10.37
2023-06-10T00:27:55.421Z,10.18
2023-06-10T00:28:55.415Z,10.26
2023-06-10T00:29:55.409Z,10.16
2023-06-10T00:30:55.422Z,10.23
2023-06-10T00:31:55.456Z,10.43
2023-06-10T00:32:55.494Z,10.48
2023-06-10T00:33:55.436Z,10.25
2023-06-10T00:34:55.443Z,10.11
2023-06-10T00:35:55.473Z,9.97
2023-06-10T00:36:55.485Z,10.10
2023-06-10T00:37:55.537Z,10.01
2023-06-10T00:38:55.539Z,10.11
2023-06-10T00:39:55.554Z,10.14
2023-06-10T00:40:55.581Z,10.01
2023-06-10T00:41:55.614Z,10.32
2023-06-10T00:42:55.642Z,9.86
2023-06-10T00:43:55.656Z,9.86
2023-06-10T00:44:55.689Z,10.07
2023-06-10T00:45:55.776Z,10.01
2023-06-10T00:46:55.731Z,10.09
2023-06-10T00:47:55.833Z,9.82
2023-06-10T00:48:55.787Z,9.65
2023-06-10T00:49:55.825Z,9.88
2023-06-10T00:50:55.848Z,9.50
2023-06-10T00:51:55.869Z,10.00
2023-06-10T00:52:56.067Z,9.80
2023-06-10T00:53:55.925Z,9.64
2023-06-10T00:54:55.949Z,9.77
2023-06-10T00:55:55.983Z,9.83
2023-06-10T00:56:56.002Z,9.76
2023-06-10T00:57:56.037Z,9.89
2023-06-10T00:58:56.052Z,9.52
2023-06-10T00:59:56.095Z,9.58
2023-06-10T01:00:56.137Z,9.68
2023-06-10T01:01:56.142Z,9.52
2023-06-10T01:02:56.307Z,9.52
2023-06-10T01:03:56.214Z,9.48
2023-06-10T01:04:56.253Z,9.72
2023-06-10T01:05:56.260Z,9.57
2023-06-10T01:06:56.307Z,9.48
2023-06-10T01:07:56.334Z,9.57
2023-06-10T01:08:56.339Z,9.58
2023-06-10T01:09:56.357Z,9.60
2023-06-10T01:10:56.356Z,9.52
2023-06-10T01:11:56.357Z,9.48
2023-06-10T01:12:56.364Z,9.51
2023-06-10T01:13:56.351Z,9.38
2023-06-10T01:14:56.388Z,9.43
2023-06-10T01:15:56.381Z,9.47
2023-06-10T01:16:56.419Z,9.31
2023-06-10T01:17:56.440Z,9.59
2023-06-10T01:18:56.383Z,9.60
2023-06-10T01:19:56.424Z,9.56
2023-06-10T01:20:56.403Z,9.48
2023-06-10T01:21:56.423Z,9.49
2023-06-10T01:22:56.430Z,9.41
2023-06-10T01:23:56.467Z,9.51
2023-06-10T01:24:56.443Z,9.50
2023-06-10T01:25:56.448Z,9.46
2023-06-10T01:26:56.454Z,9.35
2023-06-10T01:27:56.474Z,9.26
2023-06-10T01:28:56.466Z,9.35
2023-06-10T01:29:56.483Z,9.20
2023-06-10T01:30:56.500Z,9.21
2023-06-10T01:31:56.494Z,9.22
2023-06-10T01:32:56.549Z,9.33
2023-06-10T01:33:56.516Z,9.11
2023-06-10T01:34:56.537Z,8.90
2023-06-10T01:35:56.543Z,9.21
2023-06-10T01:36:56.554Z,9.14
2023-06-10T01:37:56.566Z,9.16
2023-06-10T01:38:56.574Z,9.17
2023-06-10T01:39:56.574Z,9.17
2023-06-10T01:40:56.581Z,9.05
2023-06-10T01:41:56.595Z,9.21
2023-06-10T01:42:56.605Z,9.09
2023-06-10T01:43:56.615Z,9.11
2023-06-10T01:44:56.620Z,9.11
2023-06-10T01:45:56.638Z,9.02
2023-06-10T01:46:56.850Z,9.02
2023-06-10T01:47:56.706Z,9.03
2023-06-10T01:48:56.681Z,9.00
2023-06-10T01:49:56.669Z,9.11
2023-06-10T01:50:56.674Z,8.98
2023-06-10T01:51:56.711Z,9.03
2023-06-10T01:52:56.698Z,9.04
2023-06-10T01:53:56.692Z,9.03
2023-06-10T01:54:56.715Z,9.14
2023-06-10T01:55:56.718Z,8.95
2023-06-10T01:56:56.733Z,9.00
2023-06-10T01:57:56.758Z,8.93
2023-06-10T01:58:56.747Z,8.94
2023-06-10T01:59:56.769Z,8.96
2023-06-10T02:00:56.851Z,8.99
2023-06-10T02:01:56.822Z,8.99
2023-06-10T02:02:56.839Z,8.96
2023-06-10T02:03:56.848Z,9.00
2023-06-10T02:04:56.820Z,8.74
2023-06-10T02:05:56.823Z,9.00
2023-06-10T02:06:56.817Z,8.81
2023-06-10T02:07:56.821Z,8.90
2023-06-10T02:08:56.831Z,8.96
2023-06-10T02:09:56.834Z,8.92
2023-06-10T02:10:56.827Z,8.75
2023-06-10T02:11:56.847Z,8.88
2023-06-10T02:12:56.849Z,8.57
2023-06-10T02:13:56.838Z,8.71
2023-06-10T02:14:56.865Z,8.77
2023-06-10T02:15:56.875Z,8.59
2023-06-10T02:16:56.960Z,8.76
2023-06-10T02:17:56.969Z,8.81
2023-06-10T02:18:56.936Z,8.70
2023-06-10T02:19:56.969Z,8.64
2023-06-10T02:20:57.016Z,8.62
2023-06-10T02:21:57.052Z,8.37
2023-06-10T02:22:57.092Z,8.59
2023-06-10T02:23:57.160Z,8.64
2023-06-10T02:24:57.142Z,8.60
2023-06-10T02:25:57.179Z,8.58
2023-06-10T02:26:57.194Z,8.41
2023-06-10T02:27:57.226Z,8.47
2023-06-10T02:28:57.266Z,8.42
2023-06-10T02:29:57.272Z,8.43
2023-06-10T02:30:57.279Z,8.44
2023-06-10T02:31:57.343Z,8.56
2023-06-10T02:32:57.409Z,8.39
2023-06-10T02:33:57.327Z,8.62
2023-06-10T02:34:57.342Z,8.45
2023-06-10T02:35:57.345Z,8.50
2023-06-10T02:36:57.350Z,8.47
2023-06-10T02:37:57.363Z,8.25
2023-06-10T02:38:57.370Z,8.27
2023-06-10T02:39:57.391Z,8.31
2023-06-10T02:40:57.388Z,8.31
2023-06-10T02:41:57.417Z,8.36
2023-06-10T02:42:57.423Z,8.63
2023-06-10T02:43:57.434Z,8.43
2023-06-10T02:44:57.437Z,8.44
2023-06-10T02:45:57.542Z,8.33
2023-06-10T02:46:57.478Z,8.34
2023-06-10T02:47:57.532Z,8.34
2023-06-10T02:48:57.507Z,8.41
2023-06-10T02:49:57.502Z,8.45
2023-06-10T02:50:57.526Z,8.24
2023-06-10T02:51:57.523Z,8.33
2023-06-10T02:52:57.545Z,8.01
2023-06-10T02:53:57.531Z,7.18
2023-06-10T02:54:57.559Z,6.44
2023-06-10T02:55:57.562Z,6.16
2023-06-10T02:56:57.560Z,5.81
2023-06-10T02:57:57.594Z,5.49
2023-06-10T02:58:57.600Z,5.08
2023-06-10T02:59:57.617Z,4.92
2023-06-10T03:00:57.651Z,4.74
2023-06-10T03:01:57.718Z,4.46
2023-06-10T03:02:57.795Z,4.29
2023-06-10T03:03:57.838Z,4.10
2023-06-10T03:04:57.815Z,3.95
2023-06-10T03:05:57.961Z,3.78
2023-06-10T03:06:58.006Z,3.80
2023-06-10T03:07:58.078Z,3.54
2023-06-10T03:08:58.197Z,3.30
2023-06-10T03:09:58.215Z,3.29
2023-06-10T03:10:58.296Z,3.21
2023-06-10T03:11:58.377Z,3.12
2023-06-10T03:12:58.473Z,2.91
2023-06-10T03:13:58.504Z,2.91
2023-06-10T03:14:58.623Z,2.88
2023-06-10T03:15:58.699Z,2.81
2023-06-10T03:16:58.771Z,2.65
2023-06-10T03:17:58.863Z,2.58
2023-06-10T03:18:58.884Z,2.58
2023-06-10T03:19:58.884Z,2.53
2023-06-10T03:20:58.906Z,2.57
2023-06-10T03:21:58.919Z,2.50
2023-06-10T03:22:58.954Z,2.40
2023-06-10T03:23:59.032Z,2.37
2023-06-10T03:24:59.006Z,2.37
2023-06-10T03:25:59.044Z,2.32
2023-06-10T03:26:59.089Z,2.28
2023-06-10T03:27:59.115Z,2.22
2023-06-10T03:28:59.139Z,2.25
2023-06-10T03:29:59.174Z,2.13
2023-06-10T03:30:59.209Z,2.08
2023-06-10T03:31:59.310Z,2.07
2023-06-10T03:32:59.290Z,2.07
2023-06-10T03:33:59.322Z,2.07
2023-06-10T03:34:59.345Z,2.02
2023-06-10T03:35:59.342Z,1.98
2023-06-10T03:36:59.452Z,1.91
2023-06-10T03:37:59.420Z,1.92
2023-06-10T03:38:59.436Z,1.88
2023-06-10T03:39:59.463Z,1.86
2023-06-10T03:40:59.503Z,1.85
2023-06-10T03:41:59.522Z,1.85
2023-06-10T03:42:59.568Z,1.82
2023-06-10T03:43:59.598Z,1.83
2023-06-10T03:44:59.618Z,1.84
2023-06-10T03:45:59.723Z,1.85
2023-06-10T03:46:59.683Z,1.83
2023-06-10T03:47:59.718Z,1.84
2023-06-10T03:48:59.733Z,1.84
2023-06-10T03:49:59.747Z,1.85
2023-06-10T03:50:59.783Z,1.92
2023-06-10T03:51:59.814Z,1.85
2023-06-10T03:52:59.853Z,1.89
2023-06-10T03:53:59.872Z,1.86
2023-06-10T03:54:59.912Z,1.85
2023-06-10T03:55:59.931Z,1.84
2023-06-10T03:56:59.949Z,1.82
2023-06-10T03:57:59.985Z,1.84
2023-06-10T03:59:00.032Z,1.81
2023-06-10T04:00:00.054Z,1.85
2023-06-10T04:01:00.091Z,1.86
2023-06-10T04:02:00.250Z,1.90
2023-06-10T04:03:00.185Z,1.88
2023-06-10T04:04:00.202Z,1.94
2023-06-10T04:05:00.202Z,1.96
2023-06-10T04:06:00.250Z,1.99
2023-06-10T04:07:00.253Z,1.96
2023-06-10T04:08:00.287Z,1.99
2023-06-10T04:09:00.335Z,2.01
2023-06-10T04:10:00.406Z,1.99
2023-06-10T04:11:00.485Z,1.97
2023-06-10T04:12:00.536Z,1.98
2023-06-10T04:13:00.614Z,1.97
2023-06-10T04:14:00.687Z,1.96
2023-06-10T04:15:00.753Z,1.95
2023-06-10T04:16:00.820Z,1.93
2023-06-10T04:17:00.940Z,1.93
2023-06-10T04:18:01.037Z,1.96
2023-06-10T04:19:01.031Z,1.93
2023-06-10T04:20:01.118Z,1.97
2023-06-10T04:21:01.191Z,1.97
2023-06-10T04:22:01.241Z,2.00
2023-06-10T04:23:01.320Z,1.99
2023-06-10T04:24:01.411Z,2.03
2023-06-10T04:25:01.467Z,2.03
2023-06-10T04:26:01.495Z,2.03
2023-06-10T04:27:01.541Z,2.04
2023-06-10T04:28:01.561Z,2.04
2023-06-10T04:29:01.602Z,2.11
2023-06-10T04:30:01.628Z,2.19
2023-06-10T04:31:01.677Z,2.14
2023-06-10T04:32:01.725Z,2.18
2023-06-10T04:33:01.783Z,2.21
2023-06-10T04:34:01.756Z,2.21
2023-06-10T04:35:01.800Z,2.20
2023-06-10T04:36:01.828Z,2.25
2023-06-10T04:37:01.856Z,2.25
2023-06-10T04:38:01.893Z,2.27
2023-06-10T04:39:01.917Z,2.28
2023-06-10T04:40:01.941Z,2.27
2023-06-10T04:41:01.977Z,2.33
2023-06-10T04:42:02.009Z,2.36
2023-06-10T04:43:02.088Z,2.35
2023-06-10T04:44:02.148Z,2.33
2023-06-10T04:45:02.215Z,2.39
2023-06-10T04:46:02.286Z,2.37
2023-06-10T04:47:02.418Z,2.34
2023-06-10T04:48:02.464Z,2.40
2023-06-10T04:49:02.515Z,2.38
2023-06-10T04:50:02.578Z,2.38
2023-06-10T04:51:02.660Z,2.43
2023-06-10T04:52:02.743Z,2.40
2023-06-10T04:53:02.777Z,2.40
2023-06-10T04:54:02.802Z,2.41
2023-06-10T04:55:02.820Z,2.43
2023-06-10T04:56:02.857Z,2.47
2023-06-10T04:57:02.895Z,2.54
2023-06-10T04:58:02.937Z,2.49
2023-06-10T04:59:03.007Z,2.47
2023-06-10T05:00:02.995Z,2.54
2023-06-10T05:01:03.094Z,2.54
2023-06-10T05:02:03.152Z,2.53
2023-06-10T05:03:03.244Z,2.54
2023-06-10T05:04:03.220Z,2.56
2023-06-10T05:05:03.152Z,2.53
2023-06-10T05:06:03.188Z,2.53
2023-06-10T05:07:03.228Z,2.60
2023-06-10T05:08:04.920Z,2.58
2023-06-10T05:09:03.308Z,2.59
2023-06-10T05:10:03.344Z,2.59
2023-06-10T05:11:03.362Z,2.63
2023-06-10T05:12:03.411Z,2.65
2023-06-10T05:13:03.437Z,2.64
2023-06-10T05:14:03.477Z,2.60
2023-06-10T05:15:03.565Z,2.71
2023-06-10T05:16:03.556Z,2.63
2023-06-10T05:17:03.593Z,2.58
2023-06-10T05:18:03.751Z,2.63
2023-06-10T05:19:06.303Z,2.62
2023-06-10T05:20:03.684Z,2.63
2023-06-10T05:21:03.720Z,2.64
2023-06-10T05:22:03.765Z,2.64
2023-06-10T05:23:03.789Z,2.67
2023-06-10T05:24:03.885Z,2.71
2023-06-10T05:25:03.843Z,2.74
2023-06-10T05:26:03.858Z,2.66
2023-06-10T05:27:03.902Z,2.70
2023-06-10T05:28:03.944Z,2.79
2023-06-10T05:29:03.966Z,2.70
2023-06-10T05:30:03.989Z,2.69
2023-06-10T05:31:04.026Z,2.78
2023-06-10T05:32:04.221Z,2.76
2023-06-10T05:33:04.099Z,2.77
2023-06-10T05:34:04.134Z,2.77
2023-06-10T05:35:04.128Z,2.76
2023-06-10T05:36:04.156Z,2.69
2023-06-10T05:37:04.182Z,2.70
2023-06-10T05:38:04.426Z,2.77
2023-06-10T05:39:04.258Z,2.72
2023-06-10T05:40:04.298Z,2.69
2023-06-10T05:41:04.313Z,2.74
2023-06-10T05:42:04.337Z,2.73
2023-06-10T05:43:04.423Z,2.71
2023-06-10T05:44:04.399Z,2.76
2023-06-10T05:45:04.433Z,2.71
2023-06-10T05:46:04.524Z,2.79
2023-06-10T05:47:04.543Z,2.70
2023-06-10T05:48:04.649Z,2.80
2023-06-10T05:49:04.667Z,2.78
2023-06-10T05:50:04.709Z,2.78
2023-06-10T05:51:04.764Z,2.81
2023-06-10T05:52:04.846Z,2.77
2023-06-10T05:53:04.923Z,2.86
2023-06-10T05:54:05.022Z,2.73
2023-06-10T05:55:05.037Z,2.76
2023-06-10T05:56:05.064Z,2.77
2023-06-10T05:57:05.091Z,2.78
2023-06-10T05:58:05.126Z,2.78
2023-06-10T05:59:05.166Z,2.81
2023-06-10T06:00:05.189Z,2.82
2023-06-10T06:01:05.243Z,2.79
2023-06-10T06:02:05.291Z,2.83
2023-06-10T06:03:05.387Z,2.83
2023-06-10T06:04:05.318Z,2.89
2023-06-10T06:05:05.445Z,2.91
2023-06-10T06:06:05.402Z,3.03
2023-06-10T06:07:05.407Z,2.96
2023-06-10T06:08:05.436Z,2.99
2023-06-10T06:09:05.474Z,2.93
2023-06-10T06:10:05.497Z,2.92
2023-06-10T06:11:05.525Z,2.84
2023-06-10T06:12:05.560Z,2.78
2023-06-10T06:13:05.597Z,2.71
2023-06-10T06:14:05.628Z,2.58
2023-06-10T06:15:05.657Z,2.52
2023-06-10T06:16:05.712Z,2.49
2023-06-10T06:17:05.706Z,2.49
2023-06-10T06:18:05.918Z,2.45
2023-06-10T06:19:05.767Z,2.46
2023-06-10T06:20:05.795Z,2.42
2023-06-10T06:21:05.840Z,2.40
2023-06-10T06:22:05.865Z,2.33
2023-06-10T06:23:05.907Z,2.34
2023-06-10T06:24:06.143Z,2.15
2023-06-10T06:25:06.012Z,2.16
2023-06-10T06:26:08.758Z,2.14
2023-06-10T06:27:06.046Z,2.10
2023-06-10T06:28:06.065Z,2.11
2023-06-10T06:29:06.063Z,2.06
2023-06-10T06:30:06.082Z,2.04
2023-06-10T06:31:06.142Z,2.06
2023-06-10T06:32:06.139Z,2.07
2023-06-10T06:33:06.262Z,2.10
2023-06-10T06:34:06.185Z,2.06
2023-06-10T06:35:06.390Z,2.03
2023-06-10T06:36:06.291Z,2.08
2023-06-10T06:37:06.306Z,2.08
2023-06-10T06:38:06.320Z,2.14
2023-06-10T06:39:06.325Z,2.19
2023-06-10T06:40:06.322Z,2.25
2023-06-10T06:41:06.345Z,2.29
2023-06-10T06:42:06.419Z,2.26
2023-06-10T06:43:06.421Z,2.23
2023-06-10T06:44:06.406Z,2.33
2023-06-10T06:45:06.487Z,2.33
2023-06-10T06:46:06.452Z,2.40
2023-06-10T06:47:06.460Z,2.31
2023-06-10T06:48:06.641Z,2.30
2023-06-10T06:49:06.517Z,2.38
2023-06-10T06:50:06.578Z,2.40
2023-06-10T06:51:06.594Z,2.36
2023-06-10T06:52:06.591Z,2.38
2023-06-10T06:53:06.607Z,2.33
2023-06-10T06:54:06.648Z,2.31
2023-06-10T06:55:06.841Z,2.30
2023-06-10T06:56:06.682Z,2.18
2023-06-10T06:57:06.692Z,2.17
2023-06-10T06:58:06.712Z,2.07
2023-06-10T06:59:06.740Z,2.04
2023-06-10T07:00:06.752Z,1.92
2023-06-10T07:01:06.808Z,1.89
2023-06-10T07:02:06.805Z,1.78
2023-06-10T07:03:06.875Z,1.74
2023-06-10T07:04:06.869Z,1.66
2023-06-10T07:05:07.017Z,1.57
2023-06-10T07:06:06.866Z,1.50
2023-06-10T07:07:06.881Z,1.45
2023-06-10T07:08:06.944Z,1.37
2023-06-10T07:09:07.001Z,1.34
2023-06-10T07:10:07.085Z,1.30
2023-06-10T07:11:07.145Z,1.21
2023-06-10T07:12:07.224Z,1.14
2023-06-10T07:13:07.326Z,1.04
2023-06-10T07:14:07.384Z,0.99
2023-06-10T07:15:07.722Z,0.92
2023-06-10T07:16:07.551Z,0.87
2023-06-10T07:17:07.735Z,0.80
2023-06-10T07:18:07.765Z,0.78
2023-06-10T07:19:07.766Z,0.71
2023-06-10T07:20:07.925Z,0.66
2023-06-10T07:21:07.925Z,0.63
2023-06-10T07:22:07.964Z,0.59
2023-06-10T07:23:08.057Z,0.54
2023-06-10T07:24:08.172Z,0.50
2023-06-10T07:25:08.357Z,0.51
2023-06-10T07:26:08.246Z,0.50
2023-06-10T07:27:08.328Z,0.50
2023-06-10T07:28:08.397Z,0.50
2023-06-10T07:29:08.460Z,0.51
2023-06-10T07:30:08.530Z,0.50
2023-06-10T07:31:08.623Z,0.50
2023-06-10T07:32:08.672Z,0.50
2023-06-10T07:33:08.901Z,0.50
2023-06-10T07:34:08.780Z,0.50
2023-06-10T07:35:09.162Z,0.51
2023-06-10T07:36:08.889Z,0.51
2023-06-10T07:37:08.944Z,0.50
2023-06-10T07:38:09.011Z,0.50
2023-06-10T07:39:09.069Z,0.50
2023-06-10T07:40:09.126Z,0.50
2023-06-10T07:41:09.156Z,0.51
2023-06-10T07:42:09.206Z,0.51
2023-06-10T07:43:09.250Z,0.50
2023-06-10T07:44:09.305Z,0.50
2023-06-10T07:45:09.509Z,0.50
2023-06-10T07:46:09.412Z,0.50
2023-06-10T07:47:09.407Z,0.50
2023-06-10T07:48:09.475Z,0.50
2023-06-10T07:49:09.492Z,0.51
2023-06-10T07:50:09.549Z,0.51
2023-06-10T07:51:09.580Z,0.51
2023-06-10T07:52:09.645Z,0.52
2023-06-10T07:53:09.663Z,0.51
2023-06-10T07:54:09.691Z,0.50
2023-06-10T07:55:09.922Z,0.50
2023-06-10T07:56:09.704Z,0.49
2023-06-10T07:57:09.727Z,0.47
2023-06-10T07:58:09.724Z,0.47
2023-06-10T07:59:09.723Z,0.45
2023-06-10T08:00:09.727Z,0.51
2023-06-10T08:01:09.733Z,0.50
2023-06-10T08:02:09.736Z,0.50
2023-06-10T08:03:09.852Z,0.51
2023-06-10T08:04:09.879Z,0.51
2023-06-10T08:05:09.945Z,0.50
2023-06-10T08:06:09.766Z,0.50
2023-06-10T08:07:09.758Z,0.51
2023-06-10T08:08:09.795Z,0.51
2023-06-10T08:09:09.785Z,0.50
2023-06-10T08:10:09.822Z,0.50
2023-06-10T08:11:09.808Z,0.51
2023-06-10T08:12:09.791Z,0.51
2023-06-10T08:13:09.800Z,0.51
2023-06-10T08:14:09.786Z,0.52
2023-06-10T08:15:10.072Z,0.50
2023-06-10T08:16:09.814Z,0.50
2023-06-10T08:17:09.820Z,0.51
2023-06-10T08:18:09.987Z,0.52
2023-06-10T08:19:09.885Z,0.50
2023-06-10T08:20:09.923Z,0.50
2023-06-10T08:21:09.932Z,0.51
2023-06-10T08:22:09.961Z,0.51
2023-06-10T08:23:10.029Z,0.51
2023-06-10T08:24:10.054Z,0.51
2023-06-10T08:25:10.295Z,0.51
2023-06-10T08:26:10.048Z,0.52
2023-06-10T08:27:10.090Z,0.51
2023-06-10T08:28:10.119Z,0.50
2023-06-10T08:29:10.133Z,0.51
2023-06-10T08:30:10.140Z,0.50
2023-06-10T08:31:10.184Z,0.53
2023-06-10T08:32:10.237Z,0.52
2023-06-10T08:33:10.304Z,0.51
2023-06-10T08:34:10.242Z,0.51
2023-06-10T08:35:10.556Z,0.50
2023-06-10T08:36:10.256Z,0.50
2023-06-10T08:37:10.281Z,0.49
2023-06-10T08:38:10.296Z,0.50
2023-06-10T08:39:10.257Z,0.51
2023-06-10T08:40:10.254Z,0.50
2023-06-10T08:41:10.266Z,0.50
2023-06-10T08:42:10.268Z,0.51
2023-06-10T08:43:10.262Z,0.53
2023-06-10T08:44:10.282Z,0.50
2023-06-10T08:45:10.566Z,0.51
2023-06-10T08:46:10.278Z,0.51
2023-06-10T08:47:10.312Z,0.53
2023-06-10T08:48:10.462Z,0.52
2023-06-10T08:49:10.353Z,0.55
2023-06-10T08:50:12.609Z,0.57
2023-06-10T08:51:10.333Z,0.59
2023-06-10T08:52:10.319Z,0.59
2023-06-10T08:53:10.346Z,0.65
2023-06-10T08:54:10.312Z,0.69
2023-06-10T08:55:10.440Z,0.84
2023-06-10T08:56:10.339Z,0.88
2023-06-10T08:57:10.363Z,0.88
2023-06-10T08:58:10.388Z,0.91
2023-06-10T08:59:10.393Z,0.98
2023-06-10T09:00:10.545Z,1.12
2023-06-10T09:01:10.377Z,1.37
2023-06-10T09:02:10.384Z,1.46
2023-06-10T09:03:10.413Z,1.55
2023-06-10T09:04:10.348Z,1.64
2023-06-10T09:05:10.347Z,1.80
2023-06-10T09:06:10.360Z,1.80
2023-06-10T09:07:10.349Z,1.82
2023-06-10T09:08:10.428Z,1.87
2023-06-10T09:09:10.317Z,2.01
2023-06-10T09:10:10.556Z,2.24
2023-06-10T09:11:10.318Z,2.36
2023-06-10T09:12:10.343Z,2.53
2023-06-10T09:13:10.403Z,2.73
2023-06-10T09:14:10.393Z,2.88
2023-06-10T09:15:10.386Z,3.04
2023-06-10T09:16:10.407Z,3.15
2023-06-10T09:17:10.398Z,3.35
2023-06-10T09:18:10.439Z,3.56
2023-06-10T09:19:10.387Z,3.76
2023-06-10T09:20:10.907Z,4.01
2023-06-10T09:21:10.389Z,4.17
2023-06-10T09:22:10.403Z,4.18
2023-06-10T09:23:10.303Z,4.23
2023-06-10T09:24:10.354Z,4.39
2023-06-10T09:25:10.493Z,4.64
2023-06-10T09:26:10.753Z,5.30
2023-06-10T09:27:10.262Z,5.61
2023-06-10T09:28:10.266Z,5.92
2023-06-10T09:29:10.256Z,6.13
2023-06-10T09:30:10.534Z,6.60
2023-06-10T09:31:10.403Z,6.86
2023-06-10T09:32:10.781Z,7.12
2023-06-10T09:33:10.350Z,7.43
2023-06-10T09:34:10.212Z,7.93
2023-06-10T09:35:10.208Z,8.08
2023-06-10T09:36:10.201Z,8.25
2023-06-10T09:37:10.223Z,8.69
2023-06-10T09:38:10.883Z,9.15
2023-06-10T09:39:10.337Z,9.63
2023-06-10T09:40:10.638Z,9.76
2023-06-10T09:41:10.470Z,10.18
2023-06-10T09:42:10.537Z,10.35
2023-06-10T09:43:10.532Z,10.37
2023-06-10T09:44:10.533Z,10.50
2023-06-10T09:45:10.530Z,10.80
2023-06-10T09:46:10.570Z,11.48
2023-06-10T09:47:10.513Z,12.41
2023-06-10T09:48:10.566Z,12.97
2023-06-10T09:49:10.512Z,13.18
2023-06-10T09:50:11.493Z,13.56
2023-06-10T09:51:10.595Z,13.92
2023-06-10T09:52:10.527Z,14.42
2023-06-10T09:53:10.505Z,14.61
2023-06-10T09:54:10.500Z,15.14
2023-06-10T09:55:10.543Z,15.57
2023-06-10T09:56:11.145Z,15.99
2023-06-10T09:57:10.688Z,16.33
2023-06-10T09:58:10.639Z,16.77
2023-06-10T09:59:10.669Z,17.12
2023-06-10T10:00:11.093Z,17.25
2023-06-10T10:01:10.804Z,17.70
2023-06-10T10:02:11.409Z,18.01
2023-06-10T10:03:11.016Z,18.41
2023-06-10T10:04:10.942Z,18.87
2023-06-10T10:05:11.220Z,19.01
2023-06-10T10:06:11.020Z,19.68
2023-06-10T10:07:10.993Z,19.70
2023-06-10T10:08:11.034Z,19.81
2023-06-10T10:09:11.062Z,20.16
2023-06-10T10:10:11.002Z,20.81
2023-06-10T10:11:11.012Z,21.51
2023-06-10T10:12:10.972Z,22.38
2023-06-10T10:13:10.971Z,22.40
2023-06-10T10:14:11.053Z,23.17
2023-06-10T10:15:11.193Z,23.73
2023-06-10T10:16:11.010Z,23.47
2023-06-10T10:17:11.165Z,24.11
2023-06-10T10:18:11.200Z,24.43
2023-06-10T10:19:11.107Z,24.62
2023-06-10T10:20:11.155Z,25.35
2023-06-10T10:21:11.204Z,25.52
2023-06-10T10:22:11.232Z,25.72
2023-06-10T10:23:11.229Z,25.63
2023-06-10T10:24:11.381Z,26.06
2023-06-10T10:25:11.604Z,26.10
2023-06-10T10:26:11.272Z,26.90
2023-06-10T10:27:11.288Z,26.93
2023-06-10T10:28:11.320Z,26.96
2023-06-10T10:29:11.269Z,27.17
2023-06-10T10:30:11.309Z,27.51
2023-06-10T10:31:11.309Z,28.16
2023-06-10T10:32:11.359Z,29.20
2023-06-10T10:33:11.476Z,29.36
2023-06-10T10:34:11.341Z,29.56
2023-06-10T10:35:11.575Z,29.61
2023-06-10T10:36:11.248Z,29.53
2023-06-10T10:37:11.353Z,30.36
2023-06-10T10:38:11.358Z,30.42
2023-06-10T10:39:11.339Z,30.48
2023-06-10T10:40:11.330Z,30.61
2023-06-10T10:41:11.325Z,30.95
2023-06-10T10:42:11.343Z,31.39
2023-06-10T10:43:11.340Z,32.09
2023-06-10T10:44:11.325Z,32.50
2023-06-10T10:45:11.615Z,33.15
2023-06-10T10:46:11.405Z,32.46
2023-06-10T10:47:11.309Z,32.46
2023-06-10T10:48:11.354Z,32.75
2023-06-10T10:49:11.415Z,33.32
2023-06-10T10:50:13.917Z,33.06
2023-06-10T10:51:11.449Z,33.41
2023-06-10T10:52:11.459Z,33.57
2023-06-10T10:53:11.465Z,33.78
2023-06-10T10:54:11.433Z,34.32
2023-06-10T10:55:11.556Z,33.77
2023-06-10T10:56:13.706Z,34.00
2023-06-10T10:57:11.477Z,34.04
2023-06-10T10:58:11.423Z,34.10
2023-06-10T10:59:11.436Z,34.37
2023-06-10T11:00:11.490Z,33.54
2023-06-10T11:01:11.448Z,34.30
2023-06-10T11:02:11.458Z,34.95
2023-06-10T11:03:12.241Z,34.30
2023-06-10T11:04:11.720Z,34.91
2023-06-10T11:05:11.993Z,35.43
2023-06-10T11:06:11.412Z,35.58
2023-06-10T11:07:11.430Z,35.26
2023-06-10T11:08:11.381Z,35.18
2023-06-10T11:09:11.391Z,34.44
2023-06-10T11:10:11.379Z,35.24
2023-06-10T11:11:11.367Z,35.26
2023-06-10T11:12:11.358Z,35.31
2023-06-10T11:13:11.356Z,35.34
2023-06-10T11:14:11.354Z,35.41
2023-06-10T11:15:11.605Z,36.09
2023-06-10T11:16:11.358Z,35.46
2023-06-10T11:17:11.353Z,34.92
2023-06-10T11:18:11.323Z,34.89
2023-06-10T11:19:11.300Z,34.84
2023-06-10T11:20:11.278Z,35.23
2023-06-10T11:21:11.285Z,35.02
2023-06-10T11:22:11.296Z,34.61
2023-06-10T11:23:11.255Z,35.91
2023-06-10T11:24:11.407Z,35.34
2023-06-10T11:25:11.496Z,34.87
2023-06-10T11:26:11.361Z,34.48
2023-06-10T11:27:11.402Z,35.13
2023-06-10T11:28:11.498Z,35.01
2023-06-10T11:29:11.486Z,35.11
2023-06-10T11:30:11.517Z,34.78
2023-06-10T11:31:11.664Z,34.92
2023-06-10T11:32:11.664Z,35.31
2023-06-10T11:33:11.755Z,34.08
2023-06-10T11:34:11.703Z,34.52
2023-06-10T11:35:12.179Z,35.01
2023-06-10T11:36:11.746Z,35.37
2023-06-10T11:37:11.775Z,34.11
2023-06-10T11:38:11.835Z,35.31
2023-06-10T11:39:11.854Z,34.62
2023-06-10T11:40:11.926Z,35.04
2023-06-10T11:41:11.917Z,35.01
2023-06-10T11:42:11.949Z,35.10
2023-06-10T11:43:11.993Z,34.70
2023-06-10T11:44:12.057Z,35.23
2023-06-10T11:45:12.314Z,34.99
2023-06-10T11:46:12.143Z,34.04
2023-06-10T11:47:12.169Z,34.37
2023-06-10T11:48:12.210Z,34.72
2023-06-10T11:49:12.232Z,35.01
2023-06-10T11:50:12.278Z,35.97
2023-06-10T11:51:12.312Z,35.14
2023-06-10T11:52:12.364Z,35.07
2023-06-10T11:53:12.390Z,34.03
2023-06-10T11:54:12.429Z,34.66
2023-06-10T11:55:12.788Z,34.69
2023-06-10T11:56:12.426Z,34.71
2023-06-10T11:57:12.394Z,34.80
2023-06-10T11:58:12.386Z,35.05
2023-06-10T11:59:12.381Z,35.24
2023-06-10T12:00:12.344Z,34.81
2023-06-10T12:01:13.310Z,34.88
2023-06-10T12:02:12.428Z,34.67
2023-06-10T12:03:12.394Z,34.49
2023-06-10T12:04:12.333Z,34.47
2023-06-10T12:05:12.659Z,34.83
2023-06-10T12:06:12.271Z,34.86
2023-06-10T12:07:12.266Z,35.01
2023-06-10T12:08:12.285Z,34.71
2023-06-10T12:09:22.760Z,34.01
2023-06-10T12:10:26.840Z,34.87
2023-06-10T12:11:13.196Z,34.91
2023-06-10T12:12:12.181Z,34.96
2023-06-10T12:13:12.157Z,35.18
2023-06-10T12:14:12.148Z,35.44
2023-06-10T12:15:12.442Z,35.45
2023-06-10T12:16:12.174Z,35.49
2023-06-10T12:17:12.105Z,34.89
2023-06-10T12:18:12.115Z,35.07
2023-06-10T12:19:12.078Z,34.08
2023-06-10T12:20:12.058Z,35.06
2023-06-10T12:21:12.028Z,33.95
2023-06-10T12:22:12.008Z,34.01
2023-06-10T12:23:12.000Z,34.09
2023-06-10T12:24:12.050Z,34.42
2023-06-10T12:25:12.673Z,34.94
2023-06-10T12:26:11.958Z,35.17
2023-06-10T12:27:11.936Z,35.13
2023-06-10T12:28:11.934Z,34.89
2023-06-10T12:29:11.902Z,35.16
2023-06-10T12:30:11.884Z,33.88
2023-06-10T12:31:11.845Z,35.35
2023-06-10T12:32:11.925Z,34.22
2023-06-10T12:33:11.932Z,33.64
2023-06-10T12:34:11.806Z,33.61
2023-06-10T12:35:12.145Z,34.32
2023-06-10T12:36:11.760Z,34.00
2023-06-10T12:37:11.730Z,33.76
2023-06-10T12:38:11.725Z,34.38
2023-06-10T12:39:11.729Z,32.97
2023-06-10T12:40:11.762Z,33.57
2023-06-10T12:41:11.746Z,33.60
2023-06-10T12:42:11.753Z,33.52
2023-06-10T12:43:11.756Z,33.13
2023-06-10T12:44:11.761Z,33.18
2023-06-10T12:45:12.010Z,33.80
2023-06-10T12:46:11.796Z,32.66
2023-06-10T12:47:11.776Z,32.49
2023-06-10T12:48:11.857Z,32.47
2023-06-10T12:49:11.770Z,32.50
2023-06-10T12:50:11.786Z,33.01
2023-06-10T12:51:11.806Z,32.33
2023-06-10T12:52:11.815Z,32.44
2023-06-10T12:53:11.828Z,32.22
2023-06-10T12:54:11.868Z,32.19
2023-06-10T12:55:12.266Z,31.67
2023-06-10T12:56:11.897Z,31.67
2023-06-10T12:57:11.921Z,31.21
2023-06-10T12:58:11.923Z,31.21
2023-06-10T12:59:11.965Z,30.72
2023-06-10T13:00:11.966Z,30.76
2023-06-10T13:01:12.041Z,30.93
2023-06-10T13:02:11.988Z,30.47
2023-06-10T13:03:12.071Z,29.92
2023-06-10T13:04:12.088Z,30.20
2023-06-10T13:05:14.412Z,30.23
2023-06-10T13:06:11.986Z,30.24
2023-06-10T13:07:11.947Z,30.34
2023-06-10T13:08:11.933Z,30.20
2023-06-10T13:09:11.908Z,30.23
2023-06-10T13:10:11.915Z,30.20